Time;durP1;ratioP1;P1;durP2;ratioP2;P2;SDS_P1;SDS_P2;PMS_P1;PMS_P2;Temp;Humidity;BMP_temperature;BMP_pressure;BME280_temperature;BME280_humidity;BME280_pressure;Samples;Min_cycle;Max_cycle;Signal;HPM_P1;HPM_P2
2021/08/26 00:07:32;;;;;;;3.78;1.52;;;;;;;20.21;71.29;98272.84;5061866;28;20063;-59
2021/08/26 00:09:57;;;;;;;4.07;1.42;;;;;;;20.27;71.16;98282.53;5055431;28;20059;-59
2021/08/26 00:12:23;;;;;;;3.58;1.58;;;;;;;20.15;71.51;98246.28;5060054;28;20052;-58
2021/08/26 00:14:48;;;;;;;4.25;1.40;;;;;;;20.35;71.09;98280.44;5056470;28;20038;-59
2021/08/26 00:17:14;;;;;;;4.07;1.58;;;;;;;20.13;70.72;98234.31;5057056;28;20068;-59
2021/08/26 00:19:41;;;;;;;3.78;1.70;;;;;;;20.40;71.02;98277.13;5059408;28;20025;-58
2021/08/26 00:22:06;;;;;;;4.60;1.80;;;;;;;20.44;71.11;98267.75;5056397;28;20027;-59
2021/08/26 00:24:32;;;;;;;4.28;1.50;;;;;;;20.48;71.59;98273.41;5055206;28;20025;-59
2021/08/26 00:26:57;;;;;;;3.78;1.63;;;;;;;20.46;71.10;98272.81;5060952;28;20017;-58
2021/08/26 00:29:23;;;;;;;5.40;1.63;;;;;;;20.38;71.66;98259.91;5056161;28;20035;-59
2021/08/26 00:31:48;;;;;;;7.22;1.60;;;;;;;20.48;71.18;98270.75;5058932;28;20162;-59
2021/08/26 00:34:13;;;;;;;4.15;1.50;;;;;;;20.44;71.20;98262.47;5054938;28;20513;-59
2021/08/26 00:36:39;;;;;;;4.10;1.40;;;;;;;20.44;71.30;98264.31;5058171;28;20067;-59
2021/08/26 00:39:04;;;;;;;5.30;1.70;;;;;;;20.44;71.66;98265.09;5062460;28;20041;-58
2021/08/26 00:41:30;;;;;;;4.63;1.60;;;;;;;20.43;71.71;98252.94;5051259;28;20025;-57
2021/08/26 00:43:56;;;;;;;4.63;1.75;;;;;;;20.30;73.01;98261.00;5053791;28;20099;-58
2021/08/26 00:46:22;;;;;;;5.18;1.73;;;;;;;20.36;73.09;98252.19;5059194;28;20469;-58
2021/08/26 00:48:48;;;;;;;5.05;1.60;;;;;;;20.33;72.78;98257.91;5057234;28;20471;-57
2021/08/26 00:51:13;;;;;;;5.93;1.67;;;;;;;20.19;72.77;98257.22;5055179;28;20028;-57
2021/08/26 00:53:39;;;;;;;4.10;1.55;;;;;;;20.06;73.59;98247.56;5072864;28;20029;-59
2021/08/26 00:56:16;;;;;;;4.65;1.50;;;;;;;19.82;73.64;98224.59;5061737;28;20032;-60
2021/08/26 00:58:46;;;;;;;4.10;1.65;;;;;;;19.72;74.05;98223.22;5059623;28;20039;-61
2021/08/26 01:01:12;;;;;;;5.75;1.67;;;;;;;19.82;74.60;98246.50;5062000;28;20032;-60
2021/08/26 01:03:59;;;;;;;4.88;1.73;;;;;;;19.91;74.13;98252.31;5061630;28;20039;-61
2021/08/26 01:06:27;;;;;;;4.85;1.70;;;;;;;19.77;73.68;98223.41;5050224;28;20028;-60
2021/08/26 01:09:00;;;;;;;4.75;1.70;;;;;;;19.97;73.63;98254.94;5060649;28;20032;-61
2021/08/26 01:11:26;;;;;;;4.00;1.60;;;;;;;19.91;73.85;98232.03;5055148;28;20052;-58
2021/08/26 01:13:52;;;;;;;3.60;1.65;;;;;;;20.11;74.07;98242.44;5062980;28;20029;-60
2021/08/26 01:16:17;;;;;;;5.30;1.70;;;;;;;19.96;73.95;98215.56;5056981;28;20029;-62
2021/08/26 01:18:45;;;;;;;5.28;1.55;;;;;;;20.21;74.18;98241.97;5062603;28;20024;-59
2021/08/26 01:21:18;;;;;;;5.60;1.70;;;;;;;20.20;74.68;98242.97;5059052;28;20071;-61
2021/08/26 01:23:55;;;;;;;4.00;1.77;;;;;;;19.91;74.14;98210.13;5052268;28;20060;-59
2021/08/26 01:26:24;;;;;;;4.85;1.50;;;;;;;20.15;73.81;98234.88;5056760;28;20024;-60
2021/08/26 01:28:50;;;;;;;4.22;1.70;;;;;;;20.09;73.87;98228.66;5051288;28;20264;-60
2021/08/26 01:31:18;;;;;;;4.00;1.52;;;;;;;20.08;73.40;98231.50;5059878;28;20130;-59
2021/08/26 01:33:47;;;;;;;4.95;1.60;;;;;;;20.03;73.42;98223.44;5057910;28;20487;-60
2021/08/26 01:36:12;;;;;;;3.90;1.70;;;;;;;20.07;73.44;98229.91;5058285;28;20131;-60
2021/08/26 01:38:38;;;;;;;4.47;1.67;;;;;;;19.92;73.11;98212.53;5063010;28;20386;-60
2021/08/26 01:41:03;;;;;;;3.75;1.58;;;;;;;20.00;72.82;98229.13;5058787;28;20342;-60
2021/08/26 01:43:31;;;;;;;3.78;1.55;;;;;;;19.85;72.90;98216.25;5060859;28;20038;-59
2021/08/26 01:45:57;;;;;;;4.47;1.60;;;;;;;19.72;72.98;98194.19;5061106;28;20104;-60
2021/08/26 01:48:22;;;;;;;4.47;1.70;;;;;;;19.94;72.98;98231.59;5060998;28;20107;-60
2021/08/26 01:50:49;;;;;;;4.80;1.52;;;;;;;19.92;73.16;98222.31;5064661;28;20115;-59
2021/08/26 01:53:15;;;;;;;3.67;1.52;;;;;;;19.98;73.17;98226.72;5060325;28;20106;-59
2021/08/26 01:55:41;;;;;;;6.90;1.52;;;;;;;19.92;73.51;98217.81;5061478;28;20052;-60
2021/08/26 01:58:09;;;;;;;4.65;1.50;;;;;;;19.92;73.40;98224.94;5058498;28;20032;-59
2021/08/26 02:00:34;;;;;;;5.88;1.73;;;;;;;19.94;73.52;98220.25;5058178;28;20495;-60
2021/08/26 02:02:59;;;;;;;4.00;1.52;;;;;;;19.88;73.95;98216.63;5060251;28;20115;-59
2021/08/26 02:05:25;;;;;;;4.13;1.63;;;;;;;19.82;74.53;98217.47;5061882;28;20032;-60
2021/08/26 02:07:51;;;;;;;5.55;1.70;;;;;;;19.65;73.95;98185.50;5056498;28;20356;-59
2021/08/26 02:10:17;;;;;;;4.18;1.38;;;;;;;19.86;74.21;98215.22;5060717;28;20082;-60
2021/08/26 02:12:42;;;;;;;5.35;1.80;;;;;;;19.62;73.88;98175.38;5058216;28;20032;-60
2021/08/26 02:15:09;;;;;;;5.00;1.67;;;;;;;19.78;73.07;98208.38;5059166;28;20091;-59
2021/08/26 02:17:34;;;;;;;4.55;1.70;;;;;;;19.57;73.45;98181.31;5062332;28;20115;-60
2021/08/26 02:20:00;;;;;;;4.68;1.50;;;;;;;19.79;73.53;98217.94;5059784;28;20548;-62
2021/08/26 02:22:25;;;;;;;5.90;1.70;;;;;;;19.37;73.81;98172.72;5061643;28;20051;-60
2021/08/26 02:24:50;;;;;;;4.90;1.60;;;;;;;19.59;73.89;98205.63;5056907;28;20039;-60
2021/08/26 02:27:16;;;;;;;4.85;1.65;;;;;;;19.68;73.92;98208.84;5060349;28;20115;-59
2021/08/26 02:29:41;;;;;;;4.30;1.60;;;;;;;19.62;73.92;98208.88;5061402;28;20036;-60
2021/08/26 02:32:07;;;;;;;5.32;1.70;;;;;;;19.26;74.47;98178.66;5057040;28;20040;-58
2021/08/26 02:34:32;;;;;;;6.75;1.77;;;;;;;19.25;74.26;98175.22;5078830;28;20031;-60
2021/08/26 02:36:57;;;;;;;4.38;2.05;;;;;;;19.46;74.25;98210.19;5060816;28;20089;-59
2021/08/26 02:39:23;;;;;;;6.05;1.90;;;;;;;19.38;74.72;98203.31;5058680;28;20640;-60
2021/08/26 02:41:48;;;;;;;4.88;2.05;;;;;;;19.33;74.25;98206.63;5053568;28;20126;-60
2021/08/26 02:44:13;;;;;;;5.22;1.80;;;;;;;19.29;74.21;98204.59;5063533;28;20225;-60
2021/08/26 02:46:39;;;;;;;5.05;1.70;;;;;;;19.27;73.91;98191.63;5055308;28;20033;-60
2021/08/26 02:49:04;;;;;;;4.43;1.70;;;;;;;19.27;74.03;98196.91;5062819;28;20487;-59
2021/08/26 02:51:30;;;;;;;6.28;1.83;;;;;;;19.33;74.26;98198.69;5060722;28;20048;-60
2021/08/26 02:53:55;;;;;;;4.25;1.83;;;;;;;19.01;74.35;98164.38;5062292;28;20036;-60
2021/08/26 02:56:21;;;;;;;4.95;2.20;;;;;;;19.13;74.59;98185.63;5062344;28;20029;-60
2021/08/26 02:58:46;;;;;;;5.22;2.00;;;;;;;19.14;74.66;98184.59;5058864;28;20043;-59
2021/08/26 03:01:11;;;;;;;6.53;1.70;;;;;;;19.18;74.80;98198.16;5063971;28;20039;-59
2021/08/26 03:03:37;;;;;;;4.85;2.10;;;;;;;19.13;74.94;98183.00;5050020;28;20078;-60
2021/08/26 03:06:03;;;;;;;7.55;2.13;;;;;;;19.07;74.86;98183.81;5063659;28;20094;-60
2021/08/26 03:08:30;;;;;;;4.88;1.85;;;;;;;19.12;74.44;98185.84;5055337;28;20492;-60
2021/08/26 03:10:56;;;;;;;5.60;1.90;;;;;;;18.66;74.90;98139.41;5064608;28;20035;-60
2021/08/26 03:13:21;;;;;;;7.68;2.03;;;;;;;18.90;74.84;98182.69;5062658;28;20032;-60
2021/08/26 03:15:46;;;;;;;4.55;1.70;;;;;;;19.04;74.16;98180.78;5056937;28;20028;-60
2021/08/26 03:18:12;;;;;;;5.70;1.75;;;;;;;19.09;74.03;98179.13;5062101;28;20060;-60
2021/08/26 03:20:39;;;;;;;4.57;1.90;;;;;;;19.09;74.16;98180.97;5060349;28;20463;-60
2021/08/26 03:23:04;;;;;;;4.25;1.83;;;;;;;18.98;74.51;98178.00;5058832;28;20116;-60
2021/08/26 03:25:30;;;;;;;6.22;2.03;;;;;;;18.77;75.50;98168.50;5054596;28;20177;-60
2021/08/26 03:27:55;;;;;;;5.50;2.10;;;;;;;18.53;75.94;98151.59;5061849;28;20059;-59
2021/08/26 03:30:21;;;;;;;4.53;2.00;;;;;;;18.59;75.34;98147.31;5052339;28;20037;-58
2021/08/26 03:32:46;;;;;;;5.15;1.70;;;;;;;18.74;75.33;98168.91;5058910;28;20021;-62
2021/08/26 03:35:12;;;;;;;4.80;1.90;;;;;;;18.86;75.31;98186.75;5056900;28;20139;-59
2021/08/26 03:37:37;;;;;;;7.95;1.98;;;;;;;18.60;75.21;98139.22;5052154;28;20036;-60
2021/08/26 03:40:03;;;;;;;4.70;1.90;;;;;;;18.67;75.07;98135.72;5062254;28;20462;-60
2021/08/26 03:42:29;;;;;;;5.55;2.10;;;;;;;18.69;74.67;98139.78;5062138;28;20032;-59
2021/08/26 03:44:54;;;;;;;4.10;1.80;;;;;;;18.88;75.16;98177.63;5058036;28;20051;-59
2021/08/26 03:47:19;;;;;;;5.03;1.77;;;;;;;18.92;74.79;98180.66;5059642;28;20039;-60
2021/08/26 03:49:45;;;;;;;5.25;1.92;;;;;;;18.90;74.93;98177.41;5062587;28;20040;-59
2021/08/26 03:52:10;;;;;;;4.95;1.88;;;;;;;18.83;74.73;98172.16;5057212;28;20079;-60
2021/08/26 03:54:36;;;;;;;5.20;2.10;;;;;;;18.72;74.80;98165.69;5058722;28;20390;-59
2021/08/26 03:57:02;;;;;;;5.25;1.80;;;;;;;18.83;74.50;98175.59;5060125;28;20501;-60
2021/08/26 03:59:27;;;;;;;4.43;1.90;;;;;;;18.85;74.93;98177.22;5060249;28;20036;-60
2021/08/26 04:01:53;;;;;;;3.97;1.70;;;;;;;18.85;74.39;98177.22;5061532;28;20174;-60
2021/08/26 04:04:18;;;;;;;4.45;1.88;;;;;;;18.83;74.39;98178.22;5062667;28;20064;-62
2021/08/26 04:06:43;;;;;;;5.22;2.17;;;;;;;18.67;74.82;98156.81;5062005;28;20024;-60
2021/08/26 04:09:09;;;;;;;5.20;2.00;;;;;;;18.82;74.64;98167.94;5051771;28;20058;-59
2021/08/26 04:11:34;;;;;;;4.10;1.92;;;;;;;18.87;74.45;98177.81;5062231;28;20055;-60
2021/08/26 04:14:00;;;;;;;5.65;1.85;;;;;;;18.80;74.82;98177.81;5060451;28;20033;-59
2021/08/26 04:16:25;;;;;;;4.65;1.75;;;;;;;18.69;74.68;98160.84;5055092;28;20033;-60
2021/08/26 04:18:50;;;;;;;4.95;1.70;;;;;;;18.84;74.46;98173.78;5058122;28;20497;-60
2021/08/26 04:21:16;;;;;;;5.22;2.00;;;;;;;18.89;74.44;98181.88;5057892;28;20021;-58
2021/08/26 04:23:41;;;;;;;6.07;1.83;;;;;;;18.74;74.47;98168.91;5056621;28;20045;-60
2021/08/26 04:26:07;;;;;;;4.00;1.77;;;;;;;18.84;74.62;98179.06;5057872;28;20498;-60
2021/08/26 04:28:32;;;;;;;5.13;1.77;;;;;;;18.82;74.58;98181.09;5061354;28;20070;-60
2021/08/26 04:30:57;;;;;;;5.07;1.90;;;;;;;18.82;74.56;98181.09;5059241;28;20055;-60
2021/08/26 04:33:23;;;;;;;5.63;1.98;;;;;;;18.85;74.23;98171.97;5062092;28;20036;-60
2021/08/26 04:35:49;;;;;;;4.63;1.80;;;;;;;18.91;73.87;98179.03;5063709;28;20029;-58
2021/08/26 04:38:14;;;;;;;6.82;1.70;;;;;;;18.81;74.50;98166.31;5059751;28;20032;-60
2021/08/26 04:40:39;;;;;;;5.75;1.90;;;;;;;18.83;75.17;98180.06;5057411;28;20108;-59
2021/08/26 04:43:05;;;;;;;5.82;2.38;;;;;;;18.74;75.18;98166.28;5060469;28;20086;-59
2021/08/26 04:45:31;;;;;;;5.43;2.00;;;;;;;18.71;75.18;98164.09;5066126;28;20025;-58
2021/08/26 04:47:56;;;;;;;6.03;2.10;;;;;;;18.68;75.54;98174.22;5063549;28;20055;-61
2021/08/26 04:50:22;;;;;;;6.00;2.30;;;;;;;18.70;75.97;98164.28;5061321;28;21689;-60
2021/08/26 04:52:48;;;;;;;4.43;2.17;;;;;;;18.67;76.02;98169.97;5073400;28;20843;-61
2021/08/26 04:55:13;;;;;;;6.72;2.45;;;;;;;18.68;75.84;98161.06;5065500;28;20029;-60
2021/08/26 04:57:38;;;;;;;6.05;2.10;;;;;;;18.51;76.18;98158.06;5063171;28;20116;-60
2021/08/26 05:00:05;;;;;;;5.00;2.10;;;;;;;18.61;76.49;98163.72;5060724;28;20473;-59
2021/08/26 05:02:31;;;;;;;4.28;2.00;;;;;;;18.67;76.06;98157.59;5063634;28;20040;-59
2021/08/26 05:04:56;;;;;;;6.78;2.10;;;;;;;18.55;75.97;98130.31;5070650;28;20479;-58
2021/08/26 05:07:21;;;;;;;4.40;2.00;;;;;;;18.76;75.80;98166.09;5060489;28;20750;-59
2021/08/26 05:09:47;;;;;;;6.57;2.30;;;;;;;18.75;75.29;98165.28;5054285;28;20027;-59
2021/08/26 05:12:13;;;;;;;5.70;1.90;;;;;;;18.73;75.60;98156.78;5051351;28;20408;-58
2021/08/26 05:14:38;;;;;;;5.75;2.75;;;;;;;18.71;75.85;98158.81;5055761;28;20052;-58
2021/08/26 05:17:04;;;;;;;6.00;2.30;;;;;;;18.61;76.64;98145.28;5055524;28;20027;-60
2021/08/26 05:19:29;;;;;;;10.32;2.55;;;;;;;18.56;76.93;98150.34;5064427;28;20490;-59
2021/08/26 05:21:54;;;;;;;5.15;2.20;;;;;;;18.58;76.86;98149.16;5059612;28;20488;-58
2021/08/26 05:24:20;;;;;;;6.18;2.17;;;;;;;18.56;77.68;98156.44;5064818;28;20094;-60
2021/08/26 05:26:45;;;;;;;12.30;3.92;;;;;;;18.56;79.07;98156.44;5063181;28;20033;-58
2021/08/26 05:29:11;;;;;;;9.40;2.90;;;;;;;18.43;80.20;98149.38;5064939;28;20040;-60
2021/08/26 05:31:36;;;;;;;18.60;7.60;;;;;;;18.42;80.68;98142.50;5060026;28;20107;-61
2021/08/26 05:34:02;;;;;;;10.13;3.55;;;;;;;18.39;80.89;98153.44;5062293;28;20142;-58
2021/08/26 05:36:27;;;;;;;16.98;6.32;;;;;;;18.42;80.58;98146.97;5059300;28;20056;-59
2021/08/26 05:38:52;;;;;;;8.57;3.08;;;;;;;18.17;80.63;98112.59;5059861;28;20056;-59
2021/08/26 05:41:18;;;;;;;6.13;1.77;;;;;;;18.48;80.41;98147.97;5059380;28;20024;-59
2021/08/26 05:43:43;;;;;;;6.65;2.28;;;;;;;18.46;80.44;98150.78;5059248;28;20719;-60
2021/08/26 05:46:09;;;;;;;7.85;2.83;;;;;;;18.39;80.89;98144.72;5062163;28;20246;-59
2021/08/26 05:48:34;;;;;;;8.32;2.30;;;;;;;18.27;80.77;98130.59;5058962;28;20032;-60
2021/08/26 05:51:00;;;;;;;5.55;2.30;;;;;;;18.35;80.42;98140.91;5059453;28;20475;-60
2021/08/26 05:53:26;;;;;;;5.18;1.80;;;;;;;18.34;80.95;98144.53;5061126;28;20029;-60
2021/08/26 05:55:52;;;;;;;4.40;2.03;;;;;;;18.34;79.89;98140.06;5057860;28;20045;-59
2021/08/26 05:58:17;;;;;;;5.85;1.98;;;;;;;18.40;79.70;98130.56;5055762;28;20570;-59
2021/08/26 06:00:46;;;;;;;7.72;2.65;;;;;;;18.28;80.10;98117.22;5056891;28;20501;-59
2021/08/26 06:03:12;;;;;;;4.68;1.88;;;;;;;18.12;79.15;98093.97;5059533;28;20032;-60
2021/08/26 06:05:38;;;;;;;6.15;1.70;;;;;;;18.12;79.51;98092.16;5054869;28;20036;-59
2021/08/26 06:08:03;;;;;;;5.07;1.88;;;;;;;18.18;79.54;98090.53;5060125;28;20363;-60
2021/08/26 06:10:29;;;;;;;4.30;2.00;;;;;;;18.34;78.94;98120.84;5058185;28;20050;-60
2021/08/26 06:12:54;;;;;;;4.60;1.88;;;;;;;18.36;78.81;98116.19;5052404;28;20806;-59
2021/08/26 06:15:20;;;;;;;4.22;1.70;;;;;;;18.34;79.00;98120.84;5073836;28;20033;-60
2021/08/26 06:17:45;;;;;;;5.13;1.65;;;;;;;18.24;78.38;98087.09;5057035;28;20033;-60
2021/08/26 06:20:12;;;;;;;7.22;2.03;;;;;;;18.37;77.59;98107.28;5054371;28;20044;-60
2021/08/26 06:22:39;;;;;;;4.63;1.95;;;;;;;18.40;77.35;98104.25;5057210;28;20033;-58
2021/08/26 06:25:05;;;;;;;5.50;2.00;;;;;;;18.31;77.37;98082.59;5058769;28;20031;-58
2021/08/26 06:27:31;;;;;;;4.35;1.80;;;;;;;18.40;77.23;98084.00;5048411;28;20024;-58
2021/08/26 06:29:56;;;;;;;6.50;1.80;;;;;;;18.38;76.75;98078.13;5058733;28;20032;-58
2021/08/26 06:32:22;;;;;;;6.68;2.00;;;;;;;18.46;76.55;98087.63;5056044;28;20035;-59
2021/08/26 06:34:47;;;;;;;7.75;2.03;;;;;;;18.25;77.52;98063.19;5057793;28;20418;-59
2021/08/26 06:37:13;;;;;;;6.13;1.92;;;;;;;18.53;76.67;98092.88;5055691;28;20029;-59
2021/08/26 06:39:38;;;;;;;10.07;2.30;;;;;;;18.46;77.00;98090.25;5056179;28;20400;-59
2021/08/26 06:42:04;;;;;;;6.93;2.20;;;;;;;18.47;77.62;98097.13;5073617;28;20364;-58
2021/08/26 06:44:29;;;;;;;4.53;1.70;;;;;;;18.47;76.67;98088.41;5065591;28;20215;-59
2021/08/26 06:46:54;;;;;;;7.15;1.80;;;;;;;18.53;76.39;98091.03;5057001;28;20044;-59
2021/08/26 06:49:22;;;;;;;5.15;1.88;;;;;;;18.38;75.79;98072.88;5056349;28;20180;-58
2021/08/26 06:51:48;;;;;;;5.78;1.98;;;;;;;18.50;75.72;98080.13;5055822;28;20860;-60
2021/08/26 06:54:13;;;;;;;8.35;2.00;;;;;;;18.62;75.31;98081.88;5054984;28;20028;-60
2021/08/26 06:56:39;;;;;;;12.15;3.90;;;;;;;18.63;75.06;98082.69;5055081;28;20079;-59
2021/08/26 06:59:04;;;;;;;13.57;5.32;;;;;;;18.56;74.98;98071.38;5057655;28;20118;-60
2021/08/26 07:01:29;;;;;;;12.60;3.85;;;;;;;18.69;75.05;98086.31;5071307;28;20036;-60
2021/08/26 07:03:55;;;;;;;11.38;2.60;;;;;;;18.73;75.17;98074.34;5057951;28;20123;-60
2021/08/26 07:06:20;;;;;;;9.85;2.72;;;;;;;18.87;74.60;98069.84;5056432;28;20047;-60
2021/08/26 07:08:46;;;;;;;12.23;2.38;;;;;;;18.91;75.23;98073.66;5054434;28;20035;-59
2021/08/26 07:11:11;;;;;;;8.32;2.17;;;;;;;18.85;75.49;98059.50;5052684;28;20139;-59
2021/08/26 07:13:36;;;;;;;8.07;2.47;;;;;;;18.68;75.05;98039.94;5052803;28;20085;-60
2021/08/26 07:16:02;;;;;;;6.90;2.25;;;;;;;18.92;73.39;98065.53;5059095;28;20131;-60
2021/08/26 07:18:28;;;;;;;5.57;2.40;;;;;;;18.95;73.48;98073.03;5047103;28;20029;-58
2021/08/26 07:20:54;;;;;;;6.63;2.55;;;;;;;18.94;74.97;98060.88;5044977;28;20074;-60
2021/08/26 07:23:21;;;;;;;5.82;2.30;;;;;;;18.98;75.65;98072.63;5055254;28;21624;-60
2021/08/26 07:25:46;;;;;;;8.05;2.08;;;;;;;19.08;75.77;98058.19;5060957;28;20388;-60
2021/08/26 07:28:12;;;;;;;7.15;2.30;;;;;;;19.13;75.94;98060.94;5055691;28;20024;-60
2021/08/26 07:30:38;;;;;;;6.88;2.10;;;;;;;19.07;75.88;98052.06;5059605;28;20478;-60
2021/08/26 07:33:03;;;;;;;6.75;1.80;;;;;;;18.86;75.06;98023.47;5060680;28;20679;-60
2021/08/26 07:35:29;;;;;;;5.15;2.00;;;;;;;18.95;75.27;98030.88;5062384;28;20024;-59
2021/08/26 07:37:54;;;;;;;4.00;1.70;;;;;;;19.11;74.33;98055.91;5061342;28;20037;-59
2021/08/26 07:40:20;;;;;;;4.13;1.83;;;;;;;19.07;73.74;98062.63;5059253;28;20131;-59
2021/08/26 07:42:45;;;;;;;8.60;2.08;;;;;;;19.04;72.96;98062.22;5059246;28;20037;-59
2021/08/26 07:45:11;;;;;;;4.43;1.80;;;;;;;19.09;72.29;98059.78;5061369;28;20066;-59
2021/08/26 07:47:36;;;;;;;5.13;2.20;;;;;;;19.12;73.57;98064.63;5060581;28;20067;-59
2021/08/26 07:50:03;;;;;;;5.20;1.73;;;;;;;19.15;73.35;98054.47;5061765;28;20395;-60
2021/08/26 07:52:28;;;;;;;4.22;1.70;;;;;;;19.01;72.67;98040.56;5058582;28;20035;-60
2021/08/26 07:54:53;;;;;;;5.60;1.70;;;;;;;19.09;72.41;98063.22;5061984;28;20036;-59
2021/08/26 07:57:19;;;;;;;4.28;1.80;;;;;;;19.19;72.49;98068.03;5058994;28;20137;-58
2021/08/26 07:59:45;;;;;;;6.22;1.80;;;;;;;19.22;71.72;98064.97;5064546;28;20032;-59
2021/08/26 08:02:10;;;;;;;4.40;1.70;;;;;;;19.23;72.28;98068.41;5060952;28;20111;-59
2021/08/26 08:04:36;;;;;;;5.18;1.67;;;;;;;19.23;70.62;98065.78;5074517;28;20037;-58
2021/08/26 08:07:02;;;;;;;4.75;1.85;;;;;;;19.05;70.18;98042.78;5076233;28;20138;-59
2021/08/26 08:09:27;;;;;;;5.80;1.90;;;;;;;19.00;70.45;98046.88;5054601;28;20029;-59
2021/08/26 08:11:52;;;;;;;5.75;1.80;;;;;;;19.20;71.87;98062.53;5062707;28;20348;-59
2021/08/26 08:14:18;;;;;;;4.70;1.77;;;;;;;19.27;71.47;98064.31;5052386;28;20025;-59
2021/08/26 08:16:43;;;;;;;5.85;2.30;;;;;;;19.30;72.38;98058.63;5056552;28;20060;-59
2021/08/26 08:19:09;;;;;;;5.05;1.90;;;;;;;19.33;71.66;98052.91;5050439;28;20029;-59
2021/08/26 08:21:34;;;;;;;4.72;1.70;;;;;;;19.39;71.55;98055.50;5046974;28;20126;-62
2021/08/26 08:24:00;;;;;;;5.40;2.10;;;;;;;19.40;72.37;98054.50;5055523;28;20540;-59
2021/08/26 08:26:25;;;;;;;7.72;3.00;;;;;;;19.45;71.73;98053.81;5054145;28;20063;-59
2021/08/26 08:28:50;;;;;;;5.93;2.75;;;;;;;19.47;71.56;98040.44;5061512;28;20790;-59
2021/08/26 08:31:16;;;;;;;6.22;2.63;;;;;;;19.51;72.15;98047.72;5060467;28;20036;-59
2021/08/26 08:33:44;;;;;;;4.60;2.25;;;;;;;20.84;67.46;98044.66;5056483;28;20036;-59
2021/08/26 08:36:09;;;;;;;6.68;1.75;;;;;;;23.22;57.92;98043.13;5053513;28;20093;-59
2021/08/26 08:38:34;;;;;;;4.30;1.90;;;;;;;24.71;51.27;98005.28;5054661;28;20743;-59
2021/08/26 08:41:00;;;;;;;5.40;1.90;;;;;;;26.46;46.66;98027.72;5060315;28;20031;-59
2021/08/26 08:43:26;;;;;;;4.80;3.05;;;;;;;26.66;46.68;98029.66;5054024;28;20040;-59
2021/08/26 08:45:52;;;;;;;5.93;3.75;;;;;;;26.77;45.96;98027.81;5059141;28;20557;-59
2021/08/26 08:48:18;;;;;;;5.53;2.50;;;;;;;26.74;44.70;98012.34;5069072;28;20483;-59
2021/08/26 08:50:45;;;;;;;5.30;2.90;;;;;;;26.76;46.57;98024.38;5065301;28;20036;-59
2021/08/26 08:53:15;;;;;;;6.88;3.72;;;;;;;26.25;46.87;97989.56;5056650;28;20123;-59
2021/08/26 08:55:46;;;;;;;7.53;3.40;;;;;;;25.47;47.44;97996.34;5065451;28;20055;-59
2021/08/26 08:58:12;;;;;;;4.85;1.67;;;;;;;24.53;51.43;97992.34;5055893;28;20440;-59
2021/08/26 09:00:38;;;;;;;4.00;1.73;;;;;;;23.66;52.93;98013.28;5056485;28;20028;-59
2021/08/26 09:03:04;;;;;;;4.22;1.92;;;;;;;23.22;54.24;98029.88;5060354;28;20505;-59
2021/08/26 09:05:56;;;;;;;4.63;1.80;;;;;;;22.43;55.80;98020.00;5054280;28;20032;-59
2021/08/26 09:08:23;;;;;;;4.65;1.80;;;;;;;21.86;56.98;97998.69;5050860;28;20045;-59
2021/08/26 09:10:53;;;;;;;3.55;1.38;;;;;;;21.86;57.22;98014.56;5061223;28;20052;-59
2021/08/26 09:13:28;;;;;;;4.40;1.70;;;;;;;21.65;57.62;98014.13;5057298;28;20025;-60
2021/08/26 09:15:53;;;;;;;4.03;1.60;;;;;;;21.65;58.06;98019.41;5057656;28;20102;-59
2021/08/26 09:18:19;;;;;;;5.60;1.90;;;;;;;21.72;58.72;98007.91;5055356;28;20081;-58
2021/08/26 09:20:49;;;;;;;3.88;1.60;;;;;;;22.01;57.30;97999.03;5065225;28;20410;-59
2021/08/26 09:23:14;;;;;;;3.95;1.55;;;;;;;21.88;56.50;98009.84;5064712;28;20044;-59
2021/08/26 09:25:40;;;;;;;4.63;1.65;;;;;;;21.98;56.16;97998.69;5059978;28;20024;-58
2021/08/26 09:28:06;;;;;;;4.70;1.73;;;;;;;22.13;56.97;97998.19;5070039;28;20327;-58
2021/08/26 09:30:32;;;;;;;3.45;1.50;;;;;;;22.12;56.39;98000.00;5065980;28;20060;-58
2021/08/26 09:33:00;;;;;;;4.70;1.70;;;;;;;21.92;56.70;97986.38;5060363;28;20056;-59
2021/08/26 09:35:31;;;;;;;4.00;1.67;;;;;;;21.98;55.60;97993.38;5061926;28;20035;-58
2021/08/26 09:38:01;;;;;;;4.28;1.60;;;;;;;21.82;53.76;97989.59;5053135;28;20029;-58
2021/08/26 09:40:29;;;;;;;4.05;1.60;;;;;;;21.92;56.63;97981.06;5065230;28;20562;-59
2021/08/26 09:43:12;;;;;;;5.07;2.00;;;;;;;22.06;55.84;97972.63;5065189;28;20020;-59
2021/08/26 09:45:40;;;;;;;3.58;1.40;;;;;;;22.21;54.86;97960.72;5065678;28;20033;-59
2021/08/26 09:48:10;;;;;;;3.35;1.48;;;;;;;22.29;54.70;97970.16;5068391;28;20031;-59
2021/08/26 09:50:38;;;;;;;4.30;1.70;;;;;;;22.39;55.99;97968.53;5067891;28;20514;-59
2021/08/26 09:53:04;;;;;;;4.07;1.70;;;;;;;22.33;54.85;97958.09;5065036;28;20632;-58
2021/08/26 09:55:50;;;;;;;4.05;1.60;;;;;;;22.44;55.92;97962.53;5068288;28;20032;-60
2021/08/26 09:58:17;;;;;;;3.97;1.73;;;;;;;22.25;54.29;97964.50;5042781;28;20492;-58
2021/08/26 10:00:43;;;;;;;4.40;1.60;;;;;;;22.32;54.28;97959.13;5049069;28;20577;-59
2021/08/26 10:03:13;;;;;;;4.50;1.77;;;;;;;22.35;56.01;97962.09;5057029;28;20025;-58
2021/08/26 10:05:43;;;;;;;5.32;1.63;;;;;;;22.37;56.06;97949.41;5068740;28;20098;-59
2021/08/26 10:08:10;;;;;;;4.25;1.70;;;;;;;22.52;56.02;97940.13;5051270;28;20029;-59
2021/08/26 10:10:38;;;;;;;5.78;1.63;;;;;;;22.56;56.19;97914.78;5063752;28;20041;-58
2021/08/26 10:13:04;;;;;;;4.40;1.67;;;;;;;22.56;56.54;97915.59;5071461;28;20097;-60
2021/08/26 10:15:29;;;;;;;4.30;1.90;;;;;;;22.74;57.40;97927.78;5065257;28;20492;-59
2021/08/26 10:17:55;;;;;;;4.50;1.83;;;;;;;22.80;57.71;97923.41;5065221;28;20027;-59
2021/08/26 10:20:23;;;;;;;8.05;2.03;;;;;;;22.89;58.02;97900.75;5060627;28;20655;-58
2021/08/26 10:22:50;;;;;;;7.32;1.63;;;;;;;22.88;57.58;97911.59;5059503;28;20036;-57
2021/08/26 10:25:16;;;;;;;4.20;1.73;;;;;;;22.75;57.84;97881.72;5060604;28;20032;-59
2021/08/26 10:27:43;;;;;;;4.75;1.90;;;;;;;23.16;58.77;97910.72;5063302;28;20071;-59
2021/08/26 10:30:09;;;;;;;4.25;1.63;;;;;;;23.25;57.82;97889.88;5058750;28;20104;-59
2021/08/26 10:32:35;;;;;;;4.60;1.88;;;;;;;23.31;58.06;97899.50;5061902;28;20054;-59
2021/08/26 10:35:14;;;;;;;5.60;2.50;;;;;;;23.28;58.32;97903.47;5047741;28;20029;-59
2021/08/26 10:37:49;;;;;;;4.72;2.20;;;;;;;23.17;58.34;97894.56;5064827;28;20162;-59
2021/08/26 10:40:37;;;;;;;5.85;2.45;;;;;;;23.35;55.03;97887.38;5062201;28;20044;-59
2021/08/26 10:43:04;;;;;;;4.43;2.00;;;;;;;23.40;56.69;97884.78;5053592;28;20409;-58
2021/08/26 10:45:46;;;;;;;7.15;1.98;;;;;;;23.48;55.58;97886.22;5070795;28;20028;-59
2021/08/26 10:48:14;;;;;;;6.15;1.95;;;;;;;23.53;53.38;97830.56;5049883;28;20110;-58
2021/08/26 10:50:41;;;;;;;5.17;1.97;;;;;;;24.04;53.22;97880.78;5055114;28;20083;-58
2021/08/26 10:53:09;;;;;;;5.78;1.90;;;;;;;23.89;53.10;97887.53;5056879;28;20025;-59
2021/08/26 10:55:53;;;;;;;4.28;1.95;;;;;;;23.85;53.28;97878.47;5063977;28;20028;-60
2021/08/26 10:58:21;;;;;;;4.45;1.80;;;;;;;24.05;52.87;97883.19;5060800;28;20102;-61
2021/08/26 11:00:48;;;;;;;7.82;1.73;;;;;;;24.33;50.33;97858.25;5059028;28;20040;-59
2021/08/26 11:03:32;;;;;;;4.22;1.70;;;;;;;24.48;50.65;97875.38;5063616;28;20032;-60
2021/08/26 11:05:58;;;;;;;4.70;1.88;;;;;;;24.18;51.67;97869.50;5062717;28;20024;-59
2021/08/26 11:08:31;;;;;;;4.97;1.77;;;;;;;24.08;51.82;97871.28;5059047;28;20610;-59
2021/08/26 11:10:57;;;;;;;5.35;1.75;;;;;;;23.99;51.75;97849.69;5062767;28;20035;-59
2021/08/26 11:13:28;;;;;;;4.22;1.73;;;;;;;23.95;52.18;97836.09;5060362;28;20051;-59
2021/08/26 11:15:54;;;;;;;5.55;1.90;;;;;;;24.06;51.98;97865.38;5063624;28;20469;-60
2021/08/26 11:18:29;;;;;;;6.05;1.70;;;;;;;24.14;51.98;97863.09;5059261;28;20406;-58
2021/08/26 11:20:55;;;;;;;4.10;1.70;;;;;;;24.10;51.58;97861.22;5060045;28;20017;-59
2021/08/26 11:23:45;;;;;;;5.00;1.83;;;;;;;24.32;49.34;97861.16;5054390;28;20025;-59
2021/08/26 11:26:48;;;;;;;6.15;2.30;;;;;;;24.25;50.19;97860.56;5063795;28;20062;-59
2021/08/26 11:29:19;;;;;;;4.22;1.52;;;;;;;23.95;51.75;97828.13;5057070;28;20024;-60
2021/08/26 11:31:54;;;;;;;4.82;1.77;;;;;;;24.19;51.35;97859.69;5053543;28;20040;-59
2021/08/26 11:34:26;;;;;;;4.38;1.83;;;;;;;24.22;50.92;97861.03;5056821;28;20064;-59
2021/08/26 11:37:07;;;;;;;5.20;2.00;;;;;;;24.22;51.68;97856.53;5054463;28;20040;-59
2021/08/26 11:39:37;;;;;;;4.30;1.90;;;;;;;24.21;50.15;97839.00;5057898;28;20028;-59